Bethlehem, PA (18015)

8:20 PM EST on February 09, 2016 (GMT -0500)
South Mountain | | Change Station
CLOSE
Current Station
Personal Weather Station
Location: Bethlehem, PA
Elevation: 505 ft
Nearby Weather Stations

Elev 505 ft 40.60 °N, 75.38 °W | Updated 38 seconds ago

Snow
Snow
30.4 °F
Feels Like 30 °F
N
0.0
Wind Variable Wind from NNE

Today
High -- | Low -- °F
--% Chance of Precip.
Yesterday
High -- | Low -- °F
Precip. -- in
Pressure 29.61 in
Visibility 1.0 miles
Clouds
Windchill 30 °F
Dew Point 28 °F
Humidity 92%
Rainfall 0.04 in
Snow Depth Not available.
7:03 AM 5:28 PM
Waxing Crescent, 3% visible
SPECI KABE 100118Z 00000KT 1SM -SN BR VV008 00/M02 A2961 RMK AO2 P0002 $
Pressure 29.61 in
Visibility 1.0 miles
Clouds
Windchill 30 °F
Dew Point 28 °F
Humidity 92%
Rainfall 0.04 in
Snow Depth Not available.
7:03 AM 5:28 PM
Waxing Crescent, 3% visible
SPECI KABE 100118Z 00000KT 1SM -SN BR VV008 00/M02 A2961 RMK AO2 P0002 $
Winter Storm Nacio, the third winter storm in five days to affect the Northeast, is bringing pockets of locally heavy snow to parts of the Ohio Valley, Appalachians and mid-Atlantic states Tuesday. Winter storm warnings are posted for parts of southern Pennsylvania, southern Ohio and the higher peaks of the Appalachians. Winter weather advisories, generally for lighter snow accumulations, stretch from northeast Alabama and far north Georgia to southern Connecticut and Long Island.

10-Day Weather Forecast

Almanac

Astronomy

Feb. 09, 2016 Rise Set
Actual Time
Civil Twilight
Nautical Twilight
Astronomical Twilight
Moon
Length of Visible Light
Length of Day
Tomorrow will be .
, % of the Moon is Illuminated

Today's Extremes

State Highs State Lows

Community

WunderPhotos

Upload Photos

1,891,752 photos uploaded!

WunderBlog® & News

Nearby

Air Quality

  Air Quality AQ Index Pollutant
Not available.

Snow Depth

Station Depth Elevation

Earthquake Activity

City Distance Mag. Time & Date
Minimum magnitude displayed is 2.5.

Coastal Water Temperatures

Place Temperature

Stations

Nearby Weather Stations

Station Location Temp. Windchill Dew Point Humidity Wind Precip. Elev Updated Type
                   

Watches & Warnings

There are currently no watches in effect.